Time;durP1;ratioP1;P1;durP2;ratioP2;P2;SDS_P1;SDS_P2;PMS_P1;PMS_P2;Temp;Humidity;BMP_temperature;BMP_pressure;BME280_temperature;BME280_humidity;BME280_pressure;Samples;Min_cycle;Max_cycle;Signal;HPM_P1;HPM_P2
2021/12/04 00:02:25;;;;;;;0.20;0.20;;;4.80;99.90;;;;;;4993987;28;20183;-80
2021/12/04 00:04:53;;;;;;;0.20;0.20;;;4.80;99.90;;;;;;4998890;28;20185;-81
2021/12/04 00:07:20;;;;;;;0.30;0.30;;;4.70;99.90;;;;;;4993274;28;20199;-80
2021/12/04 00:09:47;;;;;;;0.37;0.37;;;4.80;99.90;;;;;;5014917;28;20178;-81
2021/12/04 00:12:14;;;;;;;0.23;0.23;;;4.80;99.90;;;;;;4999797;28;20651;-81
2021/12/04 00:14:41;;;;;;;0.30;0.30;;;4.80;99.90;;;;;;4996460;28;20188;-81
2021/12/04 00:17:08;;;;;;;0.43;0.20;;;4.80;99.90;;;;;;4997519;28;20192;-81
2021/12/04 00:19:34;;;;;;;0.17;0.17;;;4.80;99.90;;;;;;5018849;28;20237;-80
2021/12/04 00:22:00;;;;;;;0.10;0.10;;;4.80;99.90;;;;;;5000779;28;20192;-81
2021/12/04 00:24:27;;;;;;;0.23;0.23;;;4.80;99.90;;;;;;4990075;28;20208;-80
2021/12/04 00:26:54;;;;;;;0.10;0.10;;;4.70;99.90;;;;;;4993054;28;20199;-81
2021/12/04 00:29:20;;;;;;;0.30;0.30;;;4.70;99.90;;;;;;4999196;28;20198;-80
2021/12/04 00:31:53;;;;;;;0.20;0.20;;;4.70;99.90;;;;;;5000728;28;20640;-80
2021/12/04 00:34:22;;;;;;;0.10;0.10;;;4.70;99.90;;;;;;4994789;28;20196;-81
2021/12/04 00:50:17;;;;;;;0.17;0.17;;;4.80;99.90;;;;;;5009734;28;20194;-80
2021/12/04 00:52:43;;;;;;;0.20;0.20;;;4.70;99.90;;;;;;5000328;28;20185;-80
2021/12/04 00:55:09;;;;;;;2.17;0.67;;;4.80;99.90;;;;;;4991565;28;20254;-81
2021/12/04 00:57:35;;;;;;;0.20;0.20;;;4.70;99.90;;;;;;4995386;28;20187;-80
2021/12/04 01:00:01;;;;;;;0.10;0.10;;;4.70;99.90;;;;;;5004425;28;20840;-80
2021/12/04 01:02:27;;;;;;;0.30;0.30;;;4.70;99.90;;;;;;5000589;28;20691;-80
2021/12/04 01:04:53;;;;;;;0.20;0.20;;;4.70;99.90;;;;;;4997606;28;20553;-80
2021/12/04 01:07:20;;;;;;;0.40;0.40;;;4.70;99.90;;;;;;4991116;28;20203;-80
2021/12/04 01:09:46;;;;;;;0.20;0.20;;;4.70;99.90;;;;;;4990613;28;20424;-80
2021/12/04 01:12:13;;;;;;;0.63;0.40;;;4.80;99.90;;;;;;5000121;28;20176;-80
2021/12/04 01:14:39;;;;;;;0.20;0.20;;;4.70;99.90;;;;;;4999436;28;20179;-80
2021/12/04 01:17:05;;;;;;;0.40;0.40;;;4.70;99.90;;;;;;4991547;28;20183;-80
2021/12/04 01:19:31;;;;;;;0.20;0.20;;;4.70;99.90;;;;;;5016618;28;20252;-80
2021/12/04 01:21:57;;;;;;;0.33;0.33;;;4.70;99.90;;;;;;4997384;28;20275;-79
2021/12/04 01:24:23;;;;;;;2.37;0.67;;;4.70;99.90;;;;;;4999721;28;20190;-81
2021/12/04 01:26:49;;;;;;;0.13;0.13;;;4.70;99.90;;;;;;5004078;28;20206;-81
2021/12/04 01:29:16;;;;;;;0.30;0.30;;;4.70;99.90;;;;;;5001839;28;20220;-81
2021/12/04 01:31:43;;;;;;;0.43;0.37;;;4.60;99.90;;;;;;4989890;28;20184;-81
2021/12/04 01:34:09;;;;;;;0.33;0.33;;;4.60;99.90;;;;;;4996104;28;20195;-80
2021/12/04 01:36:35;;;;;;;0.10;0.10;;;4.50;99.90;;;;;;4998489;28;20341;-80
2021/12/04 01:39:00;;;;;;;0.10;0.10;;;4.50;99.90;;;;;;4999288;28;20627;-81
2021/12/04 01:41:26;;;;;;;0.10;0.10;;;4.40;99.90;;;;;;5000050;28;20257;-79
2021/12/04 01:43:52;;;;;;;0.27;0.27;;;4.50;99.90;;;;;;4994485;28;20188;-80
2021/12/04 01:46:19;;;;;;;0.10;0.10;;;4.40;99.90;;;;;;4998095;28;20219;-81
2021/12/04 01:48:45;;;;;;;0.07;0.07;;;4.40;99.90;;;;;;4999670;28;20276;-80
2021/12/04 01:51:10;;;;;;;2.90;0.30;;;4.50;99.90;;;;;;5011347;28;20219;-81
2021/12/04 01:53:36;;;;;;;0.10;0.10;;;4.40;99.90;;;;;;4996956;28;20270;-81
2021/12/04 01:56:03;;;;;;;0.10;0.10;;;4.40;99.90;;;;;;4994991;28;20204;-81
2021/12/04 01:58:29;;;;;;;0.20;0.20;;;4.40;99.90;;;;;;5004744;28;20189;-80
2021/12/04 02:00:55;;;;;;;0.10;0.10;;;4.40;99.90;;;;;;4995975;28;20186;-80
2021/12/04 02:03:21;;;;;;;1.03;0.90;;;4.40;99.90;;;;;;4992325;28;20184;-81
2021/12/04 02:05:48;;;;;;;0.20;0.20;;;4.20;99.90;;;;;;5017139;28;20211;-80
2021/12/04 02:08:22;;;;;;;0.67;0.50;;;4.20;99.90;;;;;;4990232;28;20202;-80
2021/12/04 02:10:51;;;;;;;0.47;0.27;;;4.00;99.90;;;;;;4999265;28;20215;-81
2021/12/04 02:13:17;;;;;;;0.43;0.43;;;3.90;99.90;;;;;;4996899;28;20201;-80
2021/12/04 02:15:44;;;;;;;0.20;0.20;;;3.70;99.90;;;;;;4993865;28;20580;-81
2021/12/04 02:18:12;;;;;;;0.20;0.20;;;3.70;99.90;;;;;;4996545;28;20187;-80
2021/12/04 02:20:37;;;;;;;0.20;0.20;;;3.60;99.90;;;;;;5014417;28;20217;-80
2021/12/04 02:23:05;;;;;;;0.23;0.23;;;3.70;99.90;;;;;;5016944;28;20181;-80
2021/12/04 02:25:31;;;;;;;0.40;0.37;;;3.50;99.90;;;;;;4994087;28;20207;-80
2021/12/04 02:27:57;;;;;;;0.10;0.10;;;3.40;99.90;;;;;;4990399;28;20199;-80
2021/12/04 02:30:26;;;;;;;0.20;0.20;;;3.00;99.90;;;;;;4998057;28;20646;-80
2021/12/04 02:32:52;;;;;;;0.30;0.30;;;3.10;99.90;;;;;;4995044;28;20176;-80
2021/12/04 02:35:18;;;;;;;0.27;0.23;;;3.20;99.90;;;;;;4997838;28;20204;-80
2021/12/04 02:37:45;;;;;;;0.10;0.10;;;3.20;99.90;;;;;;4993695;28;20211;-80
2021/12/04 02:40:14;;;;;;;0.20;0.20;;;3.20;99.90;;;;;;4998291;28;20180;-80
2021/12/04 02:42:41;;;;;;;0.37;0.37;;;3.20;99.90;;;;;;4999637;28;20228;-81
2021/12/04 02:45:09;;;;;;;0.60;0.60;;;3.30;99.90;;;;;;5001529;28;20221;-81
2021/12/04 02:47:35;;;;;;;0.30;0.30;;;3.40;99.90;;;;;;5010333;28;20197;-81
2021/12/04 02:50:05;;;;;;;0.10;0.10;;;3.50;99.90;;;;;;4985794;28;20678;-81
2021/12/04 02:52:30;;;;;;;0.30;0.30;;;3.60;99.90;;;;;;5012475;28;20174;-81
2021/12/04 02:54:56;;;;;;;0.10;0.10;;;3.60;99.90;;;;;;4995624;28;20184;-80
2021/12/04 02:57:22;;;;;;;0.10;0.10;;;3.60;99.90;;;;;;4997426;28;20263;-81
2021/12/04 02:59:48;;;;;;;0.20;0.20;;;3.70;99.90;;;;;;5003586;28;20217;-80
2021/12/04 03:02:19;;;;;;;0.10;0.10;;;3.70;99.90;;;;;;4997769;28;20184;-81
2021/12/04 03:04:46;;;;;;;0.10;0.10;;;3.70;99.90;;;;;;4997720;28;20183;-80
2021/12/04 03:07:12;;;;;;;0.10;0.10;;;3.70;99.90;;;;;;4993929;28;20201;-81
2021/12/04 03:09:38;;;;;;;0.10;0.10;;;3.70;99.90;;;;;;4990404;28;20697;-80
2021/12/04 03:12:09;;;;;;;3.93;0.40;;;3.70;99.90;;;;;;5008864;28;20263;-80
2021/12/04 03:14:35;;;;;;;1.53;1.47;;;3.80;99.90;;;;;;5015735;28;20184;-80
2021/12/04 03:17:01;;;;;;;0.10;0.10;;;3.80;99.90;;;;;;4987157;28;20197;-80
2021/12/04 03:19:27;;;;;;;0.10;0.10;;;3.70;99.90;;;;;;4993611;28;20184;-80
2021/12/04 03:21:53;;;;;;;0.10;0.10;;;3.60;99.90;;;;;;4998459;28;20271;-81
2021/12/04 03:24:20;;;;;;;0.10;0.10;;;3.70;99.90;;;;;;5008016;28;20262;-81
2021/12/04 03:26:47;;;;;;;0.13;0.13;;;3.70;99.90;;;;;;5000580;28;20230;-80
2021/12/04 03:29:17;;;;;;;0.10;0.10;;;3.70;99.90;;;;;;5007190;28;20177;-80
2021/12/04 03:42:23;;;;;;;0.50;0.30;;;3.30;99.90;;;;;;5009105;28;20665;-81
2021/12/04 03:44:50;;;;;;;0.40;0.40;;;3.10;99.90;;;;;;4992495;28;20196;-80
2021/12/04 03:47:16;;;;;;;0.10;0.10;;;3.00;99.90;;;;;;4994755;28;20247;-80
2021/12/04 03:49:41;;;;;;;0.83;0.83;;;2.80;99.90;;;;;;4998036;28;20541;-80
2021/12/04 03:52:08;;;;;;;0.10;0.10;;;2.60;99.90;;;;;;4995926;28;20223;-81
2021/12/04 03:54:34;;;;;;;0.23;0.23;;;2.40;99.90;;;;;;4995926;28;20216;-80
2021/12/04 03:57:06;;;;;;;0.10;0.10;;;2.50;99.90;;;;;;4991268;28;20199;-81
2021/12/04 03:59:36;;;;;;;0.37;0.27;;;2.40;99.90;;;;;;4998085;28;20593;-80
2021/12/04 04:02:04;;;;;;;0.20;0.20;;;2.40;99.90;;;;;;5009438;28;20237;-80
2021/12/04 04:04:29;;;;;;;0.20;0.20;;;2.30;99.90;;;;;;5000298;28;20215;-81
2021/12/04 04:06:55;;;;;;;0.13;0.13;;;2.50;99.90;;;;;;5000177;28;20599;-80
2021/12/04 04:09:21;;;;;;;0.50;0.50;;;2.20;99.90;;;;;;5001501;28;20255;-80
2021/12/04 04:11:47;;;;;;;0.83;0.30;;;2.40;99.90;;;;;;5001537;28;20173;-80
2021/12/04 04:14:13;;;;;;;0.60;0.60;;;2.40;99.90;;;;;;5018785;28;20180;-81
2021/12/04 04:16:40;;;;;;;0.17;0.17;;;2.50;99.90;;;;;;5001515;28;20195;-80
2021/12/04 04:19:06;;;;;;;0.20;0.20;;;2.50;99.90;;;;;;5001401;28;20555;-81
2021/12/04 04:21:38;;;;;;;0.10;0.10;;;2.50;99.90;;;;;;4994281;28;20243;-81
2021/12/04 04:24:05;;;;;;;0.20;0.20;;;2.70;99.90;;;;;;5002020;28;20229;-79
2021/12/04 04:26:31;;;;;;;0.10;0.10;;;2.70;99.90;;;;;;4992196;28;20215;-79
2021/12/04 04:28:57;;;;;;;0.50;0.37;;;2.60;99.90;;;;;;5014429;28;20180;-80
2021/12/04 04:31:22;;;;;;;0.10;0.10;;;2.40;99.90;;;;;;4994921;28;20267;-79
2021/12/04 04:33:48;;;;;;;0.20;0.20;;;2.30;99.90;;;;;;4998852;28;20187;-79
2021/12/04 04:39:14;;;;;;;2.27;0.40;;;1.80;99.90;;;;;;5014300;28;20599;-79
2021/12/04 05:14:44;;;;;;;0.40;0.40;;;2.00;99.90;;;;;;4982175;28;20201;-80
2021/12/04 05:17:14;;;;;;;0.30;0.30;;;2.00;99.90;;;;;;4998201;28;20265;-80
2021/12/04 05:20:00;;;;;;;0.30;0.30;;;1.90;99.90;;;;;;4997633;28;20175;-80
2021/12/04 05:22:25;;;;;;;0.10;0.10;;;2.10;99.90;;;;;;5015535;28;20581;-80
2021/12/04 05:24:51;;;;;;;0.20;0.10;;;2.20;99.90;;;;;;4994665;28;20186;-80
2021/12/04 05:27:17;;;;;;;0.47;0.40;;;2.10;99.90;;;;;;4997083;28;20215;-80
2021/12/04 05:29:43;;;;;;;0.20;0.20;;;2.10;99.90;;;;;;4997491;28;20211;-80
2021/12/04 05:32:10;;;;;;;0.10;0.10;;;2.10;99.90;;;;;;5001210;28;20181;-80
2021/12/04 05:34:36;;;;;;;0.20;0.20;;;2.00;99.90;;;;;;4993338;28;20203;-80
2021/12/04 05:37:02;;;;;;;1.37;0.90;;;2.10;99.90;;;;;;4994353;28;20195;-79
2021/12/04 05:39:28;;;;;;;0.70;0.67;;;1.70;99.90;;;;;;5002770;28;20185;-80
2021/12/04 05:41:54;;;;;;;0.40;0.20;;;1.80;99.90;;;;;;5000444;28;20218;-80
2021/12/04 05:44:24;;;;;;;0.10;0.10;;;1.80;99.90;;;;;;4998456;28;20231;-80
2021/12/04 05:47:03;;;;;;;0.10;0.10;;;2.00;99.90;;;;;;4996321;28;20276;-80
2021/12/04 05:49:46;;;;;;;0.73;0.73;;;2.20;99.90;;;;;;4997083;28;20878;-80
2021/12/04 05:57:07;;;;;;;0.47;0.47;;;2.00;99.90;;;;;;5016839;28;20279;-80
2021/12/04 05:59:33;;;;;;;0.20;0.20;;;2.00;99.90;;;;;;4992024;28;20705;-80
2021/12/04 06:01:59;;;;;;;0.37;0.37;;;1.80;99.90;;;;;;4996453;28;20223;-80
2021/12/04 06:04:25;;;;;;;0.50;0.40;;;1.90;99.90;;;;;;4995756;28;20634;-80
2021/12/04 06:06:51;;;;;;;0.20;0.20;;;1.90;99.90;;;;;;5015430;28;20691;-80
2021/12/04 06:09:17;;;;;;;0.57;0.57;;;2.00;99.90;;;;;;4984929;28;20179;-79
2021/12/04 06:11:42;;;;;;;2.00;0.30;;;1.90;99.90;;;;;;4993477;28;20178;-79
2021/12/04 06:14:08;;;;;;;0.30;0.20;;;1.80;99.90;;;;;;4997826;28;20215;-81
2021/12/04 06:16:34;;;;;;;0.13;0.13;;;1.70;99.90;;;;;;4989980;28;20198;-81
2021/12/04 06:19:09;;;;;;;1.50;0.60;;;1.60;99.90;;;;;;4997244;28;20190;-81
2021/12/04 06:24:19;;;;;;;0.50;0.50;;;1.60;99.90;;;;;;5013496;28;20235;-80
2021/12/04 06:26:45;;;;;;;0.10;0.10;;;1.60;99.90;;;;;;4994742;28;20211;-80
2021/12/04 06:29:10;;;;;;;0.40;0.40;;;1.60;99.90;;;;;;4996900;28;20237;-80
2021/12/04 06:31:36;;;;;;;0.80;0.60;;;1.60;99.90;;;;;;5014938;28;20191;-80
2021/12/04 06:34:01;;;;;;;0.83;0.70;;;1.60;99.90;;;;;;5016770;28;20206;-79
2021/12/04 06:36:27;;;;;;;2.57;0.50;;;1.60;99.90;;;;;;4997121;28;20203;-79
2021/12/04 06:38:54;;;;;;;0.47;0.47;;;1.50;99.90;;;;;;4987471;28;20189;-80
2021/12/04 06:41:19;;;;;;;0.77;0.77;;;1.60;99.90;;;;;;4996334;28;20215;-80
2021/12/04 06:43:48;;;;;;;0.97;0.97;;;1.60;99.90;;;;;;4995495;28;20210;-79
2021/12/04 06:46:16;;;;;;;1.07;0.50;;;1.60;99.90;;;;;;4995538;28;20253;-80
2021/12/04 06:48:46;;;;;;;0.87;0.60;;;1.60;99.90;;;;;;5005989;28;20222;-80
2021/12/04 06:56:31;;;;;;;0.60;0.60;;;1.60;99.90;;;;;;5012636;28;20213;-80
2021/12/04 06:58:57;;;;;;;0.67;0.67;;;1.50;99.90;;;;;;4992652;28;20173;-80
2021/12/04 07:01:23;;;;;;;0.30;0.30;;;1.60;99.90;;;;;;4991282;28;20207;-80
2021/12/04 07:03:49;;;;;;;0.67;0.67;;;1.60;99.90;;;;;;4988437;28;20185;-80
2021/12/04 07:06:14;;;;;;;0.47;0.47;;;1.70;99.90;;;;;;4995557;28;20688;-80
2021/12/04 07:08:40;;;;;;;0.63;0.63;;;1.70;99.90;;;;;;4999373;28;20183;-80
2021/12/04 07:11:06;;;;;;;0.20;0.20;;;1.60;99.90;;;;;;4996516;28;20175;-80
2021/12/04 07:13:33;;;;;;;0.70;0.67;;;1.70;99.90;;;;;;5012274;28;20599;-80
2021/12/04 07:16:07;;;;;;;1.10;0.27;;;1.60;99.90;;;;;;4995666;28;20207;-80
2021/12/04 07:18:35;;;;;;;2.60;0.87;;;1.60;99.90;;;;;;4989465;28;20274;-80
2021/12/04 07:21:01;;;;;;;0.57;0.43;;;1.70;99.90;;;;;;5008398;28;20185;-80
2021/12/04 07:23:27;;;;;;;1.53;0.93;;;1.60;99.90;;;;;;4996014;28;20175;-80
2021/12/04 07:25:53;;;;;;;0.77;0.60;;;1.70;99.90;;;;;;5013951;28;20249;-80
2021/12/04 07:28:18;;;;;;;2.73;0.77;;;1.70;99.90;;;;;;4989537;28;20625;-80
2021/12/04 07:30:44;;;;;;;0.97;0.33;;;1.90;99.90;;;;;;4989252;28;20176;-80
2021/12/04 07:33:10;;;;;;;0.60;0.60;;;1.90;99.90;;;;;;4998480;28;20203;-80
2021/12/04 07:35:35;;;;;;;0.70;0.70;;;2.00;99.90;;;;;;4989158;28;20299;-80
2021/12/04 07:38:01;;;;;;;1.90;0.37;;;2.00;99.90;;;;;;4998608;28;20188;-80
2021/12/04 07:40:28;;;;;;;0.20;0.20;;;2.00;99.90;;;;;;4993170;28;20591;-80
2021/12/04 07:42:53;;;;;;;1.70;1.50;;;2.00;99.90;;;;;;5000949;28;20330;-79
2021/12/04 07:45:19;;;;;;;0.60;0.60;;;1.90;99.90;;;;;;4997963;28;20276;-80
2021/12/04 07:47:46;;;;;;;1.13;0.80;;;1.90;99.90;;;;;;4999506;28;20196;-80
2021/12/04 07:50:12;;;;;;;0.87;0.87;;;2.00;99.90;;;;;;4997581;28;20262;-79
2021/12/04 07:52:38;;;;;;;0.33;0.33;;;2.00;99.90;;;;;;5000649;28;20274;-80
2021/12/04 07:55:08;;;;;;;0.20;0.20;;;2.00;99.90;;;;;;5020390;28;20234;-80
2021/12/04 07:57:35;;;;;;;0.30;0.30;;;2.00;99.90;;;;;;5000882;28;20197;-80
2021/12/04 08:00:03;;;;;;;0.30;0.30;;;2.10;99.90;;;;;;5000164;28;20188;-80
2021/12/04 08:02:28;;;;;;;0.80;0.80;;;2.10;99.90;;;;;;4995143;28;20193;-81
2021/12/04 08:04:54;;;;;;;0.20;0.20;;;2.20;99.90;;;;;;5003648;28;20275;-80
2021/12/04 08:07:19;;;;;;;0.37;0.37;;;2.20;99.90;;;;;;4989587;28;20204;-80
2021/12/04 08:09:45;;;;;;;0.53;0.30;;;2.20;99.90;;;;;;4997232;28;20179;-80
2021/12/04 08:12:11;;;;;;;0.43;0.43;;;2.20;99.90;;;;;;4999633;28;20188;-80
2021/12/04 08:14:37;;;;;;;0.63;0.30;;;2.30;99.90;;;;;;5008334;28;20177;-80
2021/12/04 08:17:03;;;;;;;0.17;0.17;;;2.30;99.90;;;;;;5001354;28;20207;-80
2021/12/04 08:19:29;;;;;;;0.30;0.20;;;2.30;99.90;;;;;;4998528;28;20183;-80
2021/12/04 08:21:54;;;;;;;0.53;0.53;;;2.20;99.90;;;;;;4997692;28;20197;-79
2021/12/04 08:24:20;;;;;;;2.43;1.00;;;2.30;99.90;;;;;;4997603;28;20206;-80
2021/12/04 08:26:47;;;;;;;0.97;0.87;;;2.40;99.90;;;;;;5007345;28;20218;-82
2021/12/04 08:29:13;;;;;;;0.60;0.60;;;2.40;99.90;;;;;;4990076;28;20226;-81
2021/12/04 08:31:39;;;;;;;1.27;1.17;;;2.50;99.90;;;;;;5015311;28;20180;-82
2021/12/04 08:34:05;;;;;;;0.53;0.53;;;2.50;99.90;;;;;;4991517;28;20205;-80
2021/12/04 08:36:32;;;;;;;1.37;1.37;;;2.70;99.90;;;;;;4999815;28;20208;-81
2021/12/04 08:39:03;;;;;;;0.10;0.10;;;2.70;99.90;;;;;;4992886;28;20195;-82
2021/12/04 08:41:29;;;;;;;2.00;1.90;;;2.70;99.90;;;;;;4993278;28;20205;-83
2021/12/04 08:43:55;;;;;;;1.27;0.63;;;2.80;99.90;;;;;;4994851;28;20220;-82
2021/12/04 08:46:22;;;;;;;0.87;0.87;;;2.90;99.90;;;;;;4999247;28;20304;-81
2021/12/04 08:48:54;;;;;;;0.67;0.67;;;2.90;99.90;;;;;;4999511;28;20547;-81
2021/12/04 08:51:22;;;;;;;3.30;0.97;;;2.90;99.90;;;;;;5016473;28;20666;-80
2021/12/04 08:53:49;;;;;;;1.90;1.77;;;3.00;99.90;;;;;;5001637;28;20178;-81
2021/12/04 08:56:15;;;;;;;1.10;1.00;;;3.20;99.90;;;;;;5021237;28;20192;-81
2021/12/04 08:58:42;;;;;;;1.67;0.87;;;3.10;99.90;;;;;;5001046;28;20189;-81
2021/12/04 09:01:12;;;;;;;1.23;1.07;;;3.10;99.90;;;;;;5001180;28;20637;-81
2021/12/04 09:03:45;;;;;;;0.70;0.63;;;3.20;99.90;;;;;;5015662;28;20178;-81
2021/12/04 09:06:11;;;;;;;0.30;0.30;;;3.20;99.90;;;;;;5018555;28;20248;-81
2021/12/04 09:08:38;;;;;;;0.33;0.30;;;3.20;99.90;;;;;;5001747;28;20252;-81
2021/12/04 09:11:12;;;;;;;0.10;0.10;;;3.10;99.90;;;;;;4999640;28;20251;-81
2021/12/04 09:13:39;;;;;;;0.10;0.10;;;3.20;99.90;;;;;;5002745;28;20186;-80
2021/12/04 09:16:05;;;;;;;0.93;0.87;;;3.10;99.90;;;;;;5004847;28;20234;-80
2021/12/04 09:18:30;;;;;;;0.20;0.20;;;3.10;99.90;;;;;;4999211;28;20187;-80
2021/12/04 09:20:56;;;;;;;1.53;0.63;;;3.10;99.90;;;;;;4994051;28;20213;-81
2021/12/04 09:23:25;;;;;;;0.50;0.50;;;3.20;99.90;;;;;;5000407;28;20181;-80
2021/12/04 09:25:58;;;;;;;0.77;0.63;;;3.20;99.90;;;;;;5007472;28;20236;-80
2021/12/04 09:28:38;;;;;;;0.80;0.80;;;3.20;99.90;;;;;;5003840;28;20206;-81
2021/12/04 10:01:38;;;;;;;0.27;0.27;;;3.50;99.90;;;;;;5009115;28;20267;-80
2021/12/04 10:17:44;;;;;;;0.50;0.40;;;3.90;99.90;;;;;;4974160;28;20266;-83
2021/12/04 10:20:53;;;;;;;2.30;0.73;;;3.80;99.90;;;;;;4995317;28;20186;-83
2021/12/04 10:34:23;;;;;;;0.67;0.33;;;4.60;99.90;;;;;;5011569;28;20265;-81
2021/12/04 10:36:48;;;;;;;0.20;0.20;;;4.60;99.90;;;;;;4993194;28;20197;-81
2021/12/04 10:39:14;;;;;;;0.23;0.23;;;4.60;99.90;;;;;;4995171;28;20198;-81
2021/12/04 10:41:43;;;;;;;0.60;0.60;;;4.80;99.90;;;;;;4993312;28;20605;-81
2021/12/04 10:44:20;;;;;;;0.47;0.30;;;4.80;99.90;;;;;;4992825;28;20187;-81
2021/12/04 10:47:04;;;;;;;0.40;0.40;;;4.80;99.90;;;;;;4999732;28;20300;-81
2021/12/04 10:50:05;;;;;;;0.50;0.50;;;5.10;99.90;;;;;;4991604;28;20175;-80
2021/12/04 10:55:18;;;;;;;0.30;0.20;;;4.10;99.90;;;;;;5015485;28;20337;-81
2021/12/04 11:03:38;;;;;;;0.50;0.50;;;4.40;99.90;;;;;;4966092;28;20207;-80
2021/12/04 11:26:29;;;;;;;0.63;0.63;;;4.00;99.90;;;;;;5021763;28;20249;-80
2021/12/04 11:42:25;;;;;;;0.20;0.20;;;5.00;99.90;;;;;;5016519;28;20229;-80
2021/12/04 11:45:03;;;;;;;0.33;0.33;;;4.70;99.90;;;;;;4996100;28;20286;-80
2021/12/04 11:47:41;;;;;;;0.60;0.40;;;4.80;99.90;;;;;;5001780;28;20203;-80
2021/12/04 11:50:16;;;;;;;0.10;0.10;;;5.00;99.90;;;;;;5009391;28;20178;-81
2021/12/04 11:52:52;;;;;;;0.10;0.10;;;5.20;99.90;;;;;;5003739;28;20627;-81
2021/12/04 11:55:20;;;;;;;0.40;0.40;;;5.30;99.90;;;;;;5003994;28;20233;-81
2021/12/04 11:57:48;;;;;;;1.70;0.53;;;5.50;99.90;;;;;;5020561;28;20175;-81
2021/12/04 12:00:43;;;;;;;0.23;0.20;;;5.50;99.90;;;;;;5002727;28;20186;-81
2021/12/04 12:03:18;;;;;;;0.20;0.20;;;5.50;99.90;;;;;;4990831;28;20204;-81
2021/12/04 12:06:00;;;;;;;0.47;0.30;;;5.60;99.90;;;;;;4997347;28;20237;-81
2021/12/04 12:08:32;;;;;;;0.17;0.10;;;5.60;99.90;;;;;;5006408;28;20695;-81
2021/12/04 12:11:01;;;;;;;0.70;0.30;;;5.10;99.90;;;;;;5000810;28;20335;-81
2021/12/04 12:13:50;;;;;;;0.33;0.33;;;4.80;99.90;;;;;;5001032;28;20187;-81
2021/12/04 12:16:23;;;;;;;1.13;0.47;;;4.50;99.90;;;;;;5004594;28;20218;-81
2021/12/04 12:18:58;;;;;;;0.30;0.30;;;4.40;99.90;;;;;;5005059;28;20183;-81
2021/12/04 12:21:45;;;;;;;0.53;0.37;;;4.30;99.90;;;;;;5003077;28;20189;-80
2021/12/04 12:38:16;;;;;;;0.70;0.70;;;4.40;99.90;;;;;;5032185;28;20194;-80
2021/12/04 12:40:56;;;;;;;0.20;0.20;;;4.30;99.90;;;;;;5026919;28;20585;-79
2021/12/04 12:43:21;;;;;;;0.60;0.60;;;4.50;99.90;;;;;;5024680;28;20171;-80
2021/12/04 12:45:57;;;;;;;0.57;0.37;;;4.20;99.90;;;;;;5022089;28;20295;-79
2021/12/04 12:48:23;;;;;;;1.03;0.67;;;4.20;99.90;;;;;;4995737;28;20211;-79
2021/12/04 12:50:49;;;;;;;1.37;0.23;;;4.20;99.90;;;;;;5012067;28;20175;-79
2021/12/04 12:53:19;;;;;;;0.63;0.30;;;4.20;99.90;;;;;;4994779;28;20686;-79
2021/12/04 12:55:47;;;;;;;0.77;0.77;;;4.10;99.90;;;;;;4993522;28;20195;-81
2021/12/04 12:58:14;;;;;;;0.53;0.50;;;4.10;99.90;;;;;;4995950;28;20188;-80
2021/12/04 13:11:56;;;;;;;0.10;0.10;;;4.40;99.90;;;;;;5016517;28;20214;-81
2021/12/04 13:14:27;;;;;;;0.17;0.17;;;4.60;99.90;;;;;;4996215;28;20182;-80
2021/12/04 13:16:59;;;;;;;0.27;0.27;;;4.80;99.90;;;;;;4995744;28;20203;-81
2021/12/04 13:19:26;;;;;;;0.30;0.30;;;4.70;99.90;;;;;;4988254;28;20209;-81
2021/12/04 13:21:57;;;;;;;0.37;0.37;;;4.60;99.90;;;;;;4990985;28;20247;-80
2021/12/04 13:24:25;;;;;;;0.33;0.33;;;4.50;99.90;;;;;;4996785;28;20187;-81
2021/12/04 13:26:52;;;;;;;0.37;0.30;;;4.40;99.90;;;;;;4990857;28;20257;-81
2021/12/04 13:29:22;;;;;;;0.40;0.40;;;4.40;99.90;;;;;;4998848;28;20186;-80
2021/12/04 13:31:58;;;;;;;0.33;0.20;;;4.50;99.90;;;;;;5012620;28;20171;-81
2021/12/04 13:34:27;;;;;;;0.10;0.10;;;4.80;99.90;;;;;;4989908;28;20253;-80
2021/12/04 13:36:53;;;;;;;0.10;0.10;;;5.00;99.90;;;;;;4993041;28;20203;-81
2021/12/04 13:39:21;;;;;;;0.27;0.27;;;5.10;99.90;;;;;;5006912;28;20194;-81
2021/12/04 13:41:49;;;;;;;0.40;0.40;;;5.10;99.90;;;;;;5000205;28;20239;-83
2021/12/04 13:44:20;;;;;;;0.10;0.10;;;5.20;99.90;;;;;;4996752;28;20640;-80
2021/12/04 13:46:59;;;;;;;1.07;0.50;;;5.30;99.90;;;;;;4994350;28;20803;-80
2021/12/04 13:49:32;;;;;;;0.20;0.20;;;5.40;99.90;;;;;;4998387;28;20180;-78
